sensor_id;sensor_type;location;lat;lon;timestamp;temperature;humidity
2130;DHT22;1071;52.544;13.374;2023-02-10T00:01:54;4.90;95.10
2130;DHT22;1071;52.544;13.374;2023-02-10T00:04:21;4.90;95.30
2130;DHT22;1071;52.544;13.374;2023-02-10T00:06:48;4.90;95.40
2130;DHT22;1071;52.544;13.374;2023-02-10T00:09:15;5.00;95.50
2130;DHT22;1071;52.544;13.374;2023-02-10T00:11:43;5.00;95.60
2130;DHT22;1071;52.544;13.374;2023-02-10T00:14:30;5.00;95.60
2130;DHT22;1071;52.544;13.374;2023-02-10T00:16:57;5.00;95.60
2130;DHT22;1071;52.544;13.374;2023-02-10T00:19:28;4.90;95.60
2130;DHT22;1071;52.544;13.374;2023-02-10T00:21:56;4.90;95.70
2130;DHT22;1071;52.544;13.374;2023-02-10T00:24:24;4.90;95.70
2130;DHT22;1071;52.544;13.374;2023-02-10T00:26:51;4.90;95.80
2130;DHT22;1071;52.544;13.374;2023-02-10T00:29:18;4.90;95.80
2130;DHT22;1071;52.544;13.374;2023-02-10T00:31:47;4.90;95.80
2130;DHT22;1071;52.544;13.374;2023-02-10T00:34:16;4.90;95.90
2130;DHT22;1071;52.544;13.374;2023-02-10T00:36:43;4.90;95.90
2130;DHT22;1071;52.544;13.374;2023-02-10T00:39:13;4.90;96.00
2130;DHT22;1071;52.544;13.374;2023-02-10T00:41:40;4.90;96.00
2130;DHT22;1071;52.544;13.374;2023-02-10T00:44:08;4.90;96.00
2130;DHT22;1071;52.544;13.374;2023-02-10T00:46:35;5.00;96.20
2130;DHT22;1071;52.544;13.374;2023-02-10T00:49:04;5.00;96.20
2130;DHT22;1071;52.544;13.374;2023-02-10T00:51:31;5.00;96.20
2130;DHT22;1071;52.544;13.374;2023-02-10T00:53:59;5.00;96.30
2130;DHT22;1071;52.544;13.374;2023-02-10T00:56:26;5.00;96.30
2130;DHT22;1071;52.544;13.374;2023-02-10T00:58:53;5.00;96.30
2130;DHT22;1071;52.544;13.374;2023-02-10T01:01:20;5.00;96.30
2130;DHT22;1071;52.544;13.374;2023-02-10T01:03:47;5.00;96.40
2130;DHT22;1071;52.544;13.374;2023-02-10T01:06:15;5.10;96.50
2130;DHT22;1071;52.544;13.374;2023-02-10T01:08:45;5.10;96.60
2130;DHT22;1071;52.544;13.374;2023-02-10T01:11:14;5.10;96.60
2130;DHT22;1071;52.544;13.374;2023-02-10T01:13:42;5.10;96.60
2130;DHT22;1071;52.544;13.374;2023-02-10T01:16:11;5.10;96.70
2130;DHT22;1071;52.544;13.374;2023-02-10T01:18:44;5.10;96.70
2130;DHT22;1071;52.544;13.374;2023-02-10T01:21:27;5.00;96.70
2130;DHT22;1071;52.544;13.374;2023-02-10T01:23:55;5.00;96.80
2130;DHT22;1071;52.544;13.374;2023-02-10T01:26:22;5.00;96.90
2130;DHT22;1071;52.544;13.374;2023-02-10T01:28:49;5.00;97.00
2130;DHT22;1071;52.544;13.374;2023-02-10T01:31:18;5.00;97.20
2130;DHT22;1071;52.544;13.374;2023-02-10T01:33:46;4.90;97.20
2130;DHT22;1071;52.544;13.374;2023-02-10T01:36:15;4.90;97.30
2130;DHT22;1071;52.544;13.374;2023-02-10T01:38:44;4.90;97.40
2130;DHT22;1071;52.544;13.374;2023-02-10T01:41:12;4.90;97.50
2130;DHT22;1071;52.544;13.374;2023-02-10T01:43:58;4.90;97.60
2130;DHT22;1071;52.544;13.374;2023-02-10T01:46:26;4.90;97.70
2130;DHT22;1071;52.544;13.374;2023-02-10T01:48:55;4.90;97.80
2130;DHT22;1071;52.544;13.374;2023-02-10T01:51:31;4.80;97.90
2130;DHT22;1071;52.544;13.374;2023-02-10T01:54:26;4.80;98.10
2130;DHT22;1071;52.544;13.374;2023-02-10T01:56:52;4.80;98.20
2130;DHT22;1071;52.544;13.374;2023-02-10T01:59:20;4.80;98.30
2130;DHT22;1071;52.544;13.374;2023-02-10T02:01:49;4.80;98.50
2130;DHT22;1071;52.544;13.374;2023-02-10T02:04:19;4.80;98.60
2130;DHT22;1071;52.544;13.374;2023-02-10T02:06:46;4.80;98.70
2130;DHT22;1071;52.544;13.374;2023-02-10T02:09:15;4.80;98.80
2130;DHT22;1071;52.544;13.374;2023-02-10T02:11:48;4.80;98.80
2130;DHT22;1071;52.544;13.374;2023-02-10T02:14:29;4.80;99.30
2130;DHT22;1071;52.544;13.374;2023-02-10T02:17:06;4.70;99.00
2130;DHT22;1071;52.544;13.374;2023-02-10T02:23:13;4.80;99.20
2130;DHT22;1071;52.544;13.374;2023-02-10T02:25:57;4.70;99.30
2130;DHT22;1071;52.544;13.374;2023-02-10T02:28:30;4.70;99.40
2130;DHT22;1071;52.544;13.374;2023-02-10T02:33:55;4.70;99.60
2130;DHT22;1071;52.544;13.374;2023-02-10T02:36:25;4.70;99.70
2130;DHT22;1071;52.544;13.374;2023-02-10T02:38:59;4.70;99.80
2130;DHT22;1071;52.544;13.374;2023-02-10T02:41:27;4.70;99.90
2130;DHT22;1071;52.544;13.374;2023-02-10T02:43:55;4.70;99.90
2130;DHT22;1071;52.544;13.374;2023-02-10T02:46:30;4.60;99.90
2130;DHT22;1071;52.544;13.374;2023-02-10T02:49:09;4.60;99.90
2130;DHT22;1071;52.544;13.374;2023-02-10T02:51:45;4.60;99.90
2130;DHT22;1071;52.544;13.374;2023-02-10T02:54:19;4.60;99.90
2130;DHT22;1071;52.544;13.374;2023-02-10T02:56:54;4.60;99.90
2130;DHT22;1071;52.544;13.374;2023-02-10T02:59:27;4.60;99.90
2130;DHT22;1071;52.544;13.374;2023-02-10T03:01:58;4.60;99.90
2130;DHT22;1071;52.544;13.374;2023-02-10T03:04:30;4.60;99.90
2130;DHT22;1071;52.544;13.374;2023-02-10T03:07:01;4.60;99.90
2130;DHT22;1071;52.544;13.374;2023-02-10T03:09:28;4.60;99.90
2130;DHT22;1071;52.544;13.374;2023-02-10T03:11:56;4.60;99.90
2130;DHT22;1071;52.544;13.374;2023-02-10T03:14:23;4.60;99.90
2130;DHT22;1071;52.544;13.374;2023-02-10T03:16:51;4.60;99.90
2130;DHT22;1071;52.544;13.374;2023-02-10T03:19:18;4.60;99.90
2130;DHT22;1071;52.544;13.374;2023-02-10T03:21:46;4.60;99.90
2130;DHT22;1071;52.544;13.374;2023-02-10T03:24:14;4.70;99.90
2130;DHT22;1071;52.544;13.374;2023-02-10T03:26:42;4.70;99.90
2130;DHT22;1071;52.544;13.374;2023-02-10T03:29:10;4.70;99.90
2130;DHT22;1071;52.544;13.374;2023-02-10T03:31:38;4.70;99.90
2130;DHT22;1071;52.544;13.374;2023-02-10T03:34:05;4.70;99.90
2130;DHT22;1071;52.544;13.374;2023-02-10T03:36:32;4.70;99.90
2130;DHT22;1071;52.544;13.374;2023-02-10T03:39:01;4.80;99.90
2130;DHT22;1071;52.544;13.374;2023-02-10T03:41:29;4.80;99.90
2130;DHT22;1071;52.544;13.374;2023-02-10T03:43:56;4.80;99.90
2130;DHT22;1071;52.544;13.374;2023-02-10T03:46:23;4.80;99.90
2130;DHT22;1071;52.544;13.374;2023-02-10T03:48:50;4.80;99.90
2130;DHT22;1071;52.544;13.374;2023-02-10T03:51:17;4.80;99.90
2130;DHT22;1071;52.544;13.374;2023-02-10T03:53:44;4.80;99.90
2130;DHT22;1071;52.544;13.374;2023-02-10T03:56:12;4.90;99.90
2130;DHT22;1071;52.544;13.374;2023-02-10T03:58:40;4.80;99.90
2130;DHT22;1071;52.544;13.374;2023-02-10T04:01:12;4.80;99.90
2130;DHT22;1071;52.544;13.374;2023-02-10T04:03:39;4.80;99.90
2130;DHT22;1071;52.544;13.374;2023-02-10T04:06:07;4.80;99.90
2130;DHT22;1071;52.544;13.374;2023-02-10T04:08:35;4.80;99.90
2130;DHT22;1071;52.544;13.374;2023-02-10T04:11:02;4.80;99.90
2130;DHT22;1071;52.544;13.374;2023-02-10T04:13:31;4.80;99.90
2130;DHT22;1071;52.544;13.374;2023-02-10T04:16:02;4.80;99.90
2130;DHT22;1071;52.544;13.374;2023-02-10T04:18:30;4.80;99.90
2130;DHT22;1071;52.544;13.374;2023-02-10T04:20:57;4.80;99.90
2130;DHT22;1071;52.544;13.374;2023-02-10T04:23:26;4.80;99.90
2130;DHT22;1071;52.544;13.374;2023-02-10T04:25:53;4.80;99.90
2130;DHT22;1071;52.544;13.374;2023-02-10T04:28:21;4.80;99.90
2130;DHT22;1071;52.544;13.374;2023-02-10T04:30:51;4.80;99.90
2130;DHT22;1071;52.544;13.374;2023-02-10T04:33:19;4.80;99.90
2130;DHT22;1071;52.544;13.374;2023-02-10T04:35:47;4.80;99.90
2130;DHT22;1071;52.544;13.374;2023-02-10T04:38:14;4.80;99.90
2130;DHT22;1071;52.544;13.374;2023-02-10T04:40:42;4.80;99.90
2130;DHT22;1071;52.544;13.374;2023-02-10T04:43:09;4.90;99.90
2130;DHT22;1071;52.544;13.374;2023-02-10T04:45:36;4.90;99.90
2130;DHT22;1071;52.544;13.374;2023-02-10T04:48:04;4.90;99.90
2130;DHT22;1071;52.544;13.374;2023-02-10T04:50:32;4.90;99.90
2130;DHT22;1071;52.544;13.374;2023-02-10T04:52:59;4.90;99.90
2130;DHT22;1071;52.544;13.374;2023-02-10T04:55:26;5.00;99.90
2130;DHT22;1071;52.544;13.374;2023-02-10T04:57:53;5.00;99.90
2130;DHT22;1071;52.544;13.374;2023-02-10T05:00:20;5.10;99.90
2130;DHT22;1071;52.544;13.374;2023-02-10T05:02:47;5.10;99.90
2130;DHT22;1071;52.544;13.374;2023-02-10T05:05:17;5.10;99.90
2130;DHT22;1071;52.544;13.374;2023-02-10T05:07:44;5.10;99.90
2130;DHT22;1071;52.544;13.374;2023-02-10T05:10:11;5.10;99.90
2130;DHT22;1071;52.544;13.374;2023-02-10T05:12:39;5.00;99.90
2130;DHT22;1071;52.544;13.374;2023-02-10T05:15:06;5.00;99.90
2130;DHT22;1071;52.544;13.374;2023-02-10T05:17:34;5.10;99.90
2130;DHT22;1071;52.544;13.374;2023-02-10T05:20:01;5.10;99.90
2130;DHT22;1071;52.544;13.374;2023-02-10T05:22:30;5.10;99.90
2130;DHT22;1071;52.544;13.374;2023-02-10T05:24:57;5.10;99.90
2130;DHT22;1071;52.544;13.374;2023-02-10T05:27:24;5.10;99.90
2130;DHT22;1071;52.544;13.374;2023-02-10T05:29:52;5.10;99.90
2130;DHT22;1071;52.544;13.374;2023-02-10T05:32:19;5.10;99.90
2130;DHT22;1071;52.544;13.374;2023-02-10T05:34:46;5.10;99.90
2130;DHT22;1071;52.544;13.374;2023-02-10T05:37:13;5.10;99.90
2130;DHT22;1071;52.544;13.374;2023-02-10T05:39:41;5.10;99.90
2130;DHT22;1071;52.544;13.374;2023-02-10T05:42:08;5.00;99.90
2130;DHT22;1071;52.544;13.374;2023-02-10T05:44:35;5.00;99.90
2130;DHT22;1071;52.544;13.374;2023-02-10T05:47:07;5.00;99.90
2130;DHT22;1071;52.544;13.374;2023-02-10T05:49:34;5.00;99.90
2130;DHT22;1071;52.544;13.374;2023-02-10T05:52:01;5.00;99.90
2130;DHT22;1071;52.544;13.374;2023-02-10T05:54:28;5.00;99.90
2130;DHT22;1071;52.544;13.374;2023-02-10T05:56:57;4.90;99.90
2130;DHT22;1071;52.544;13.374;2023-02-10T05:59:24;4.90;99.90
2130;DHT22;1071;52.544;13.374;2023-02-10T06:01:51;4.90;99.90
2130;DHT22;1071;52.544;13.374;2023-02-10T06:04:19;4.90;99.90
2130;DHT22;1071;52.544;13.374;2023-02-10T06:06:46;4.90;99.90
2130;DHT22;1071;52.544;13.374;2023-02-10T06:09:15;4.90;99.90
2130;DHT22;1071;52.544;13.374;2023-02-10T06:11:42;4.90;99.90
2130;DHT22;1071;52.544;13.374;2023-02-10T06:14:11;4.80;99.90
2130;DHT22;1071;52.544;13.374;2023-02-10T06:16:38;4.90;99.90
2130;DHT22;1071;52.544;13.374;2023-02-10T06:19:05;4.90;99.90
2130;DHT22;1071;52.544;13.374;2023-02-10T06:21:32;4.90;99.90
2130;DHT22;1071;52.544;13.374;2023-02-10T06:23:59;4.90;99.90
2130;DHT22;1071;52.544;13.374;2023-02-10T06:26:26;4.90;99.90
2130;DHT22;1071;52.544;13.374;2023-02-10T06:28:53;4.90;99.90
2130;DHT22;1071;52.544;13.374;2023-02-10T06:31:22;4.90;99.90
2130;DHT22;1071;52.544;13.374;2023-02-10T06:33:50;5.00;99.90
2130;DHT22;1071;52.544;13.374;2023-02-10T06:36:17;5.00;99.90
2130;DHT22;1071;52.544;13.374;2023-02-10T06:38:45;5.00;99.90
2130;DHT22;1071;52.544;13.374;2023-02-10T06:41:13;5.00;99.90
2130;DHT22;1071;52.544;13.374;2023-02-10T06:43:40;5.00;99.90
2130;DHT22;1071;52.544;13.374;2023-02-10T06:46:11;5.00;99.90
2130;DHT22;1071;52.544;13.374;2023-02-10T06:48:42;5.00;99.90
2130;DHT22;1071;52.544;13.374;2023-02-10T06:51:09;5.00;99.90
2130;DHT22;1071;52.544;13.374;2023-02-10T06:53:36;5.00;99.90
2130;DHT22;1071;52.544;13.374;2023-02-10T06:56:04;5.00;99.90
2130;DHT22;1071;52.544;13.374;2023-02-10T06:58:31;5.00;99.90
2130;DHT22;1071;52.544;13.374;2023-02-10T07:00:58;5.00;99.90
2130;DHT22;1071;52.544;13.374;2023-02-10T07:03:26;5.00;99.90
2130;DHT22;1071;52.544;13.374;2023-02-10T07:05:55;5.00;99.90
2130;DHT22;1071;52.544;13.374;2023-02-10T07:08:22;5.00;99.90
2130;DHT22;1071;52.544;13.374;2023-02-10T07:10:49;5.00;99.90
2130;DHT22;1071;52.544;13.374;2023-02-10T07:13:17;5.00;99.90
2130;DHT22;1071;52.544;13.374;2023-02-10T07:15:46;5.10;99.90
2130;DHT22;1071;52.544;13.374;2023-02-10T07:18:14;5.10;99.90
2130;DHT22;1071;52.544;13.374;2023-02-10T07:20:41;5.00;99.90
2130;DHT22;1071;52.544;13.374;2023-02-10T07:23:10;5.00;99.90
2130;DHT22;1071;52.544;13.374;2023-02-10T07:25:36;5.10;99.90
2130;DHT22;1071;52.544;13.374;2023-02-10T07:28:04;5.10;99.90
2130;DHT22;1071;52.544;13.374;2023-02-10T07:30:33;5.10;99.90
2130;DHT22;1071;52.544;13.374;2023-02-10T07:33:11;5.10;99.90
2130;DHT22;1071;52.544;13.374;2023-02-10T07:35:38;5.10;99.90
2130;DHT22;1071;52.544;13.374;2023-02-10T07:38:05;5.10;99.90
2130;DHT22;1071;52.544;13.374;2023-02-10T07:40:34;5.20;99.90
2130;DHT22;1071;52.544;13.374;2023-02-10T07:43:01;5.20;99.90
2130;DHT22;1071;52.544;13.374;2023-02-10T07:45:28;5.30;99.90
2130;DHT22;1071;52.544;13.374;2023-02-10T07:47:58;5.30;99.90
2130;DHT22;1071;52.544;13.374;2023-02-10T07:50:26;5.40;99.90
2130;DHT22;1071;52.544;13.374;2023-02-10T07:52:54;5.40;99.90
2130;DHT22;1071;52.544;13.374;2023-02-10T07:55:21;5.30;99.90
2130;DHT22;1071;52.544;13.374;2023-02-10T07:57:51;5.40;99.90
2130;DHT22;1071;52.544;13.374;2023-02-10T08:00:21;5.40;99.90
2130;DHT22;1071;52.544;13.374;2023-02-10T08:02:48;5.40;99.90
2130;DHT22;1071;52.544;13.374;2023-02-10T08:05:15;5.50;99.90
2130;DHT22;1071;52.544;13.374;2023-02-10T08:07:43;5.50;99.90
2130;DHT22;1071;52.544;13.374;2023-02-10T08:10:15;5.50;99.90
2130;DHT22;1071;52.544;13.374;2023-02-10T08:12:42;5.50;99.90
2130;DHT22;1071;52.544;13.374;2023-02-10T08:15:10;5.60;99.90
2130;DHT22;1071;52.544;13.374;2023-02-10T08:17:38;5.50;99.90
2130;DHT22;1071;52.544;13.374;2023-02-10T08:20:06;5.60;99.90
2130;DHT22;1071;52.544;13.374;2023-02-10T08:22:34;5.60;99.90
2130;DHT22;1071;52.544;13.374;2023-02-10T08:25:01;5.60;99.90
2130;DHT22;1071;52.544;13.374;2023-02-10T08:27:29;5.70;99.90
2130;DHT22;1071;52.544;13.374;2023-02-10T08:29:57;5.70;99.90
2130;DHT22;1071;52.544;13.374;2023-02-10T08:32:31;5.80;99.90
2130;DHT22;1071;52.544;13.374;2023-02-10T08:34:58;5.80;99.90
2130;DHT22;1071;52.544;13.374;2023-02-10T08:37:25;5.80;99.90
2130;DHT22;1071;52.544;13.374;2023-02-10T08:39:52;5.80;99.90
2130;DHT22;1071;52.544;13.374;2023-02-10T08:42:20;5.90;99.90
2130;DHT22;1071;52.544;13.374;2023-02-10T08:44:48;5.90;99.90
2130;DHT22;1071;52.544;13.374;2023-02-10T08:47:15;6.00;99.90
2130;DHT22;1071;52.544;13.374;2023-02-10T08:49:43;6.00;99.90
2130;DHT22;1071;52.544;13.374;2023-02-10T08:52:10;6.00;99.90
2130;DHT22;1071;52.544;13.374;2023-02-10T08:54:38;6.10;99.90
2130;DHT22;1071;52.544;13.374;2023-02-10T08:57:05;6.10;99.90
2130;DHT22;1071;52.544;13.374;2023-02-10T08:59:33;6.10;99.90
2130;DHT22;1071;52.544;13.374;2023-02-10T09:02:00;6.10;99.90
2130;DHT22;1071;52.544;13.374;2023-02-10T09:04:27;6.20;99.90
2130;DHT22;1071;52.544;13.374;2023-02-10T09:06:58;6.20;99.90
2130;DHT22;1071;52.544;13.374;2023-02-10T09:09:25;6.20;99.90
2130;DHT22;1071;52.544;13.374;2023-02-10T09:11:57;6.30;99.90
2130;DHT22;1071;52.544;13.374;2023-02-10T09:14:25;6.40;99.90
2130;DHT22;1071;52.544;13.374;2023-02-10T09:16:53;6.50;99.90
2130;DHT22;1071;52.544;13.374;2023-02-10T09:19:20;6.50;99.90
2130;DHT22;1071;52.544;13.374;2023-02-10T09:21:49;6.60;99.90
2130;DHT22;1071;52.544;13.374;2023-02-10T09:24:17;6.60;99.90
2130;DHT22;1071;52.544;13.374;2023-02-10T09:26:49;6.60;99.90
2130;DHT22;1071;52.544;13.374;2023-02-10T09:29:19;6.60;99.90
2130;DHT22;1071;52.544;13.374;2023-02-10T09:31:46;6.70;99.90
2130;DHT22;1071;52.544;13.374;2023-02-10T09:34:13;6.70;99.90
2130;DHT22;1071;52.544;13.374;2023-02-10T09:36:41;6.70;99.90
2130;DHT22;1071;52.544;13.374;2023-02-10T09:39:16;6.80;99.90
2130;DHT22;1071;52.544;13.374;2023-02-10T09:41:54;6.80;99.90
2130;DHT22;1071;52.544;13.374;2023-02-10T09:44:23;6.80;99.90
2130;DHT22;1071;52.544;13.374;2023-02-10T09:47:10;6.90;99.90
2130;DHT22;1071;52.544;13.374;2023-02-10T09:49:59;6.90;99.90
2130;DHT22;1071;52.544;13.374;2023-02-10T09:52:41;6.90;99.90
2130;DHT22;1071;52.544;13.374;2023-02-10T09:55:17;6.90;99.90
2130;DHT22;1071;52.544;13.374;2023-02-10T09:57:52;6.90;99.90
2130;DHT22;1071;52.544;13.374;2023-02-10T10:00:26;7.00;99.90
2130;DHT22;1071;52.544;13.374;2023-02-10T10:02:57;7.00;99.90
2130;DHT22;1071;52.544;13.374;2023-02-10T10:05:39;7.00;99.90
2130;DHT22;1071;52.544;13.374;2023-02-10T10:08:14;7.00;99.90
2130;DHT22;1071;52.544;13.374;2023-02-10T10:10:46;7.00;99.90
2130;DHT22;1071;52.544;13.374;2023-02-10T10:13:21;7.00;99.90
2130;DHT22;1071;52.544;13.374;2023-02-10T10:16:07;7.00;99.90
2130;DHT22;1071;52.544;13.374;2023-02-10T10:18:45;7.10;99.90
2130;DHT22;1071;52.544;13.374;2023-02-10T10:21:21;7.10;99.90
2130;DHT22;1071;52.544;13.374;2023-02-10T10:24:00;7.10;99.90
2130;DHT22;1071;52.544;13.374;2023-02-10T10:26:41;7.20;99.90
2130;DHT22;1071;52.544;13.374;2023-02-10T10:29:20;7.20;99.90
2130;DHT22;1071;52.544;13.374;2023-02-10T10:32:00;7.30;99.90
2130;DHT22;1071;52.544;13.374;2023-02-10T10:34:37;7.30;99.90
2130;DHT22;1071;52.544;13.374;2023-02-10T10:37:12;7.40;99.90
2130;DHT22;1071;52.544;13.374;2023-02-10T10:39:43;7.40;99.90
2130;DHT22;1071;52.544;13.374;2023-02-10T10:42:18;7.50;99.90
2130;DHT22;1071;52.544;13.374;2023-02-10T10:44:48;7.50;99.90
2130;DHT22;1071;52.544;13.374;2023-02-10T10:47:20;7.50;99.90
2130;DHT22;1071;52.544;13.374;2023-02-10T10:49:48;7.50;99.90
2130;DHT22;1071;52.544;13.374;2023-02-10T10:52:25;7.60;99.90
2130;DHT22;1071;52.544;13.374;2023-02-10T10:54:54;7.60;99.90
2130;DHT22;1071;52.544;13.374;2023-02-10T10:57:23;7.70;99.90
2130;DHT22;1071;52.544;13.374;2023-02-10T10:59:54;7.60;99.90
2130;DHT22;1071;52.544;13.374;2023-02-10T11:02:23;7.70;99.90
2130;DHT22;1071;52.544;13.374;2023-02-10T11:05:00;7.70;99.90
2130;DHT22;1071;52.544;13.374;2023-02-10T11:07:31;7.80;99.90
2130;DHT22;1071;52.544;13.374;2023-02-10T11:09:59;7.80;99.90
2130;DHT22;1071;52.544;13.374;2023-02-10T11:12:37;7.80;99.90
2130;DHT22;1071;52.544;13.374;2023-02-10T11:15:27;7.80;99.90
2130;DHT22;1071;52.544;13.374;2023-02-10T11:17:57;7.80;99.90
2130;DHT22;1071;52.544;13.374;2023-02-10T11:20:26;7.80;99.90
2130;DHT22;1071;52.544;13.374;2023-02-10T11:22:58;7.80;99.90
2130;DHT22;1071;52.544;13.374;2023-02-10T11:25:29;7.80;99.90
2130;DHT22;1071;52.544;13.374;2023-02-10T11:27:59;7.80;99.90
2130;DHT22;1071;52.544;13.374;2023-02-10T11:30:32;7.80;99.90
2130;DHT22;1071;52.544;13.374;2023-02-10T11:33:01;7.70;99.90
2130;DHT22;1071;52.544;13.374;2023-02-10T11:35:30;7.70;99.90
2130;DHT22;1071;52.544;13.374;2023-02-10T11:38:02;7.70;99.90
2130;DHT22;1071;52.544;13.374;2023-02-10T11:40:47;7.80;99.90
2130;DHT22;1071;52.544;13.374;2023-02-10T11:43:17;7.80;99.90
2130;DHT22;1071;52.544;13.374;2023-02-10T11:45:52;7.80;99.90
2130;DHT22;1071;52.544;13.374;2023-02-10T11:48:24;7.80;99.90
2130;DHT22;1071;52.544;13.374;2023-02-10T11:51:01;7.80;99.90
2130;DHT22;1071;52.544;13.374;2023-02-10T11:53:31;7.80;99.90
2130;DHT22;1071;52.544;13.374;2023-02-10T11:56:01;7.80;99.90
2130;DHT22;1071;52.544;13.374;2023-02-10T11:58:55;7.80;99.90
2130;DHT22;1071;52.544;13.374;2023-02-10T12:01:43;7.80;99.90
2130;DHT22;1071;52.544;13.374;2023-02-10T12:05:08;7.90;99.90
2130;DHT22;1071;52.544;13.374;2023-02-10T12:07:45;7.90;99.90
2130;DHT22;1071;52.544;13.374;2023-02-10T12:10:18;8.00;99.90
2130;DHT22;1071;52.544;13.374;2023-02-10T12:12:55;8.00;99.90
2130;DHT22;1071;52.544;13.374;2023-02-10T12:15:34;8.10;99.90
2130;DHT22;1071;52.544;13.374;2023-02-10T12:18:12;8.20;99.90
2130;DHT22;1071;52.544;13.374;2023-02-10T12:20:50;8.20;99.90
2130;DHT22;1071;52.544;13.374;2023-02-10T12:23:51;8.20;99.90
2130;DHT22;1071;52.544;13.374;2023-02-10T12:26:29;8.20;99.90
2130;DHT22;1071;52.544;13.374;2023-02-10T12:29:17;8.20;99.90
2130;DHT22;1071;52.544;13.374;2023-02-10T12:31:56;8.30;99.90
2130;DHT22;1071;52.544;13.374;2023-02-10T12:37:30;8.40;99.90
2130;DHT22;1071;52.544;13.374;2023-02-10T12:43:00;8.40;99.90
2130;DHT22;1071;52.544;13.374;2023-02-10T12:45:35;8.50;99.90
2130;DHT22;1071;52.544;13.374;2023-02-10T12:48:18;8.50;99.90
2130;DHT22;1071;52.544;13.374;2023-02-10T12:51:08;8.60;99.90
2130;DHT22;1071;52.544;13.374;2023-02-10T12:53:41;8.60;99.90
2130;DHT22;1071;52.544;13.374;2023-02-10T12:56:19;8.70;99.90
2130;DHT22;1071;52.544;13.374;2023-02-10T12:58:50;8.70;99.90
2130;DHT22;1071;52.544;13.374;2023-02-10T13:01:23;8.70;99.90
2130;DHT22;1071;52.544;13.374;2023-02-10T13:04:05;8.60;99.90
2130;DHT22;1071;52.544;13.374;2023-02-10T13:06:38;8.70;99.90
2130;DHT22;1071;52.544;13.374;2023-02-10T13:09:12;8.70;99.90
2130;DHT22;1071;52.544;13.374;2023-02-10T13:11:45;8.70;99.90
2130;DHT22;1071;52.544;13.374;2023-02-10T13:14:20;8.70;99.90
2130;DHT22;1071;52.544;13.374;2023-02-10T13:16:52;8.70;99.90
2130;DHT22;1071;52.544;13.374;2023-02-10T13:19:28;8.70;99.90
2130;DHT22;1071;52.544;13.374;2023-02-10T13:22:05;8.80;99.90
2130;DHT22;1071;52.544;13.374;2023-02-10T13:24:42;8.80;99.90
2130;DHT22;1071;52.544;13.374;2023-02-10T13:27:27;8.80;99.90
2130;DHT22;1071;52.544;13.374;2023-02-10T13:30:04;8.70;99.90
2130;DHT22;1071;52.544;13.374;2023-02-10T13:32:40;8.70;99.90
2130;DHT22;1071;52.544;13.374;2023-02-10T13:35:15;8.80;99.90
2130;DHT22;1071;52.544;13.374;2023-02-10T13:37:45;8.80;99.90
2130;DHT22;1071;52.544;13.374;2023-02-10T13:40:17;8.80;99.90
2130;DHT22;1071;52.544;13.374;2023-02-10T13:42:53;8.70;99.90
2130;DHT22;1071;52.544;13.374;2023-02-10T13:45:23;8.70;99.90
2130;DHT22;1071;52.544;13.374;2023-02-10T13:47:53;8.80;99.90
2130;DHT22;1071;52.544;13.374;2023-02-10T13:50:27;8.80;99.90
2130;DHT22;1071;52.544;13.374;2023-02-10T13:52:57;8.80;99.90
2130;DHT22;1071;52.544;13.374;2023-02-10T13:55:40;8.80;99.90
2130;DHT22;1071;52.544;13.374;2023-02-10T13:58:26;8.80;99.90
2130;DHT22;1071;52.544;13.374;2023-02-10T14:00:57;8.80;99.90
2130;DHT22;1071;52.544;13.374;2023-02-10T14:03:26;8.80;99.90
2130;DHT22;1071;52.544;13.374;2023-02-10T14:05:57;8.80;99.90
2130;DHT22;1071;52.544;13.374;2023-02-10T14:08:30;8.80;99.90
2130;DHT22;1071;52.544;13.374;2023-02-10T14:11:00;8.80;99.90
2130;DHT22;1071;52.544;13.374;2023-02-10T14:13:29;8.80;99.90
2130;DHT22;1071;52.544;13.374;2023-02-10T14:15:59;8.90;99.90
2130;DHT22;1071;52.544;13.374;2023-02-10T14:18:32;8.90;99.90
2130;DHT22;1071;52.544;13.374;2023-02-10T14:21:03;8.90;99.90
2130;DHT22;1071;52.544;13.374;2023-02-10T14:23:32;8.90;99.90
2130;DHT22;1071;52.544;13.374;2023-02-10T14:26:02;8.90;99.90
2130;DHT22;1071;52.544;13.374;2023-02-10T14:28:34;8.90;99.90
2130;DHT22;1071;52.544;13.374;2023-02-10T14:31:05;8.90;99.90
2130;DHT22;1071;52.544;13.374;2023-02-10T14:33:34;8.90;99.90
2130;DHT22;1071;52.544;13.374;2023-02-10T14:36:17;8.90;99.90
2130;DHT22;1071;52.544;13.374;2023-02-10T14:38:49;8.90;99.90
2130;DHT22;1071;52.544;13.374;2023-02-10T14:41:17;8.90;99.90
2130;DHT22;1071;52.544;13.374;2023-02-10T14:43:44;8.90;99.90
2130;DHT22;1071;52.544;13.374;2023-02-10T14:46:18;8.90;99.90
2130;DHT22;1071;52.544;13.374;2023-02-10T14:48:47;9.00;99.90
2130;DHT22;1071;52.544;13.374;2023-02-10T14:51:21;9.00;99.90
2130;DHT22;1071;52.544;13.374;2023-02-10T14:53:50;9.00;99.90
2130;DHT22;1071;52.544;13.374;2023-02-10T14:56:20;9.00;99.90
2130;DHT22;1071;52.544;13.374;2023-02-10T14:58:50;9.00;99.90
2130;DHT22;1071;52.544;13.374;2023-02-10T15:01:24;8.90;99.90
2130;DHT22;1071;52.544;13.374;2023-02-10T15:03:56;9.00;99.90
2130;DHT22;1071;52.544;13.374;2023-02-10T15:06:27;8.90;99.90
2130;DHT22;1071;52.544;13.374;2023-02-10T15:08:58;8.90;99.90
2130;DHT22;1071;52.544;13.374;2023-02-10T15:11:30;8.90;99.90
2130;DHT22;1071;52.544;13.374;2023-02-10T15:14:20;8.90;99.90
2130;DHT22;1071;52.544;13.374;2023-02-10T15:16:50;8.90;99.90
2130;DHT22;1071;52.544;13.374;2023-02-10T15:19:18;8.80;99.90
2130;DHT22;1071;52.544;13.374;2023-02-10T15:21:47;8.80;99.90
2130;DHT22;1071;52.544;13.374;2023-02-10T15:24:26;8.80;99.90
2130;DHT22;1071;52.544;13.374;2023-02-10T15:26:53;8.80;99.90
2130;DHT22;1071;52.544;13.374;2023-02-10T15:29:21;8.80;99.90
2130;DHT22;1071;52.544;13.374;2023-02-10T15:31:53;8.80;99.90
2130;DHT22;1071;52.544;13.374;2023-02-10T15:34:28;8.80;99.90
2130;DHT22;1071;52.544;13.374;2023-02-10T15:37:00;8.80;99.90
2130;DHT22;1071;52.544;13.374;2023-02-10T15:39:30;8.70;99.90
2130;DHT22;1071;52.544;13.374;2023-02-10T15:42:04;8.70;99.90
2130;DHT22;1071;52.544;13.374;2023-02-10T15:44:35;8.60;99.90
2130;DHT22;1071;52.544;13.374;2023-02-10T15:47:36;8.50;99.90
2130;DHT22;1071;52.544;13.374;2023-02-10T15:50:09;8.50;99.90
2130;DHT22;1071;52.544;13.374;2023-02-10T15:52:41;8.50;99.90
2130;DHT22;1071;52.544;13.374;2023-02-10T15:55:20;8.40;99.90
2130;DHT22;1071;52.544;13.374;2023-02-10T15:57:48;8.40;99.90
2130;DHT22;1071;52.544;13.374;2023-02-10T16:00:22;8.40;99.90
2130;DHT22;1071;52.544;13.374;2023-02-10T16:02:51;8.40;99.90
2130;DHT22;1071;52.544;13.374;2023-02-10T16:05:19;8.40;99.90
2130;DHT22;1071;52.544;13.374;2023-02-10T16:07:49;8.30;99.90
2130;DHT22;1071;52.544;13.374;2023-02-10T16:10:25;8.30;99.90
2130;DHT22;1071;52.544;13.374;2023-02-10T16:13:06;8.30;99.90
2130;DHT22;1071;52.544;13.374;2023-02-10T16:15:33;8.30;99.90
2130;DHT22;1071;52.544;13.374;2023-02-10T16:18:04;8.20;99.90
2130;DHT22;1071;52.544;13.374;2023-02-10T16:20:32;8.20;99.90
2130;DHT22;1071;52.544;13.374;2023-02-10T16:23:01;8.20;99.90
2130;DHT22;1071;52.544;13.374;2023-02-10T16:25:28;8.20;99.90
2130;DHT22;1071;52.544;13.374;2023-02-10T16:27:55;8.20;99.90
2130;DHT22;1071;52.544;13.374;2023-02-10T16:30:25;8.20;99.90
2130;DHT22;1071;52.544;13.374;2023-02-10T16:32:53;8.20;99.90
2130;DHT22;1071;52.544;13.374;2023-02-10T16:35:21;8.20;99.90
2130;DHT22;1071;52.544;13.374;2023-02-10T16:37:49;8.10;99.90
2130;DHT22;1071;52.544;13.374;2023-02-10T16:40:21;8.10;99.90